createdAt,value
2023-03-01T00:01:41.700Z,17.27
2023-03-01T00:04:08.792Z,15.30
2023-03-01T00:06:38.957Z,16.38
2023-03-01T00:09:08.809Z,16.33
2023-03-01T00:11:38.274Z,13.85
2023-03-01T00:14:08.493Z,12.45
2023-03-01T00:16:40.422Z,12.63
2023-03-01T00:19:13.617Z,12.77
2023-03-01T00:21:41.207Z,12.45
2023-03-01T00:24:09.212Z,10.60
2023-03-01T00:26:36.431Z,11.45
2023-03-01T00:29:05.872Z,11.27
2023-03-01T00:31:34.425Z,11.07
2023-03-01T00:34:05.745Z,16.55
2023-03-01T00:36:39.355Z,11.30
2023-03-01T00:39:12.965Z,10.98
2023-03-01T00:41:42.849Z,12.77
2023-03-01T00:44:13.041Z,10.77
2023-03-01T00:46:40.193Z,11.20
2023-03-01T00:49:09.353Z,11.50
2023-03-01T00:51:40.338Z,11.55
2023-03-01T00:54:09.727Z,9.88
2023-03-01T00:56:36.662Z,10.95
2023-03-01T00:59:05.709Z,13.07
2023-03-01T01:01:32.960Z,11.30
2023-03-01T01:04:02.909Z,11.80
2023-03-01T01:06:34.167Z,13.05
2023-03-01T01:09:03.988Z,14.85
2023-03-01T01:11:31.654Z,11.88
2023-03-01T01:13:59.066Z,11.82
2023-03-01T01:16:29.216Z,15.02
2023-03-01T01:18:57.593Z,12.10
2023-03-01T01:21:26.247Z,11.50
2023-03-01T01:23:54.069Z,12.50
2023-03-01T01:26:27.656Z,11.68
2023-03-01T01:28:55.209Z,11.75
2023-03-01T01:31:27.925Z,11.85
2023-03-01T01:33:59.250Z,12.55
2023-03-01T01:36:29.988Z,13.40
2023-03-01T01:38:57.987Z,13.93
2023-03-01T01:41:28.026Z,13.38
2023-03-01T01:44:25.026Z,13.63
2023-03-01T01:47:03.031Z,13.60
2023-03-01T01:49:39.487Z,13.07
2023-03-01T01:52:37.375Z,14.80
2023-03-01T01:55:13.119Z,13.27
2023-03-01T01:57:45.732Z,13.85
2023-03-01T02:00:23.649Z,13.25
2023-03-01T02:02:59.011Z,13.13
2023-03-01T02:05:55.653Z,14.00
2023-03-01T02:08:28.425Z,13.88
2023-03-01T02:11:00.747Z,15.05
2023-03-01T02:13:30.880Z,14.23
2023-03-01T02:15:57.954Z,16.48
2023-03-01T02:18:25.919Z,17.83
2023-03-01T02:21:35.777Z,13.43
2023-03-01T02:24:21.491Z,13.93
2023-03-01T02:26:53.723Z,15.18
2023-03-01T02:29:23.296Z,14.18
2023-03-01T02:31:52.501Z,16.00
2023-03-01T02:34:23.168Z,15.40
2023-03-01T02:37:08.550Z,14.40
2023-03-01T02:39:45.817Z,13.95
2023-03-01T02:42:18.139Z,14.93
2023-03-01T02:44:45.595Z,14.43
2023-03-01T02:47:15.683Z,13.93
2023-03-01T02:49:42.597Z,13.70
2023-03-01T02:52:29.735Z,15.13
2023-03-01T02:54:59.963Z,14.23
2023-03-01T02:57:32.618Z,12.77
2023-03-01T03:00:09.163Z,13.35
2023-03-01T03:02:37.909Z,13.18
2023-03-01T03:05:12.151Z,13.38
2023-03-01T03:07:42.958Z,14.98
2023-03-01T03:10:16.834Z,13.55
2023-03-01T03:12:43.776Z,12.88
2023-03-01T03:15:13.665Z,14.23
2023-03-01T03:17:44.121Z,13.57
2023-03-01T03:20:20.055Z,15.00
2023-03-01T03:22:50.927Z,16.02
2023-03-01T03:25:19.295Z,14.13
2023-03-01T03:27:49.210Z,15.68
2023-03-01T03:30:20.585Z,15.18
2023-03-01T03:32:53.383Z,15.45
2023-03-01T03:35:40.390Z,15.02
2023-03-01T03:38:16.519Z,14.18
2023-03-01T03:41:04.391Z,16.15
2023-03-01T03:43:39.397Z,13.70
2023-03-01T03:46:11.927Z,15.43
2023-03-01T03:48:45.140Z,14.90
2023-03-01T03:51:16.972Z,14.23
2023-03-01T03:53:46.532Z,14.52
2023-03-01T03:56:18.998Z,15.40
2023-03-01T03:58:48.161Z,17.95
2023-03-01T04:01:15.048Z,15.85
2023-03-01T04:03:42.779Z,16.23
2023-03-01T04:06:09.690Z,16.88
2023-03-01T04:08:36.662Z,16.73
2023-03-01T04:11:24.485Z,15.27
2023-03-01T04:13:57.975Z,14.13
2023-03-01T04:16:25.907Z,16.42
2023-03-01T04:18:55.613Z,16.65
2023-03-01T04:21:25.778Z,15.90
2023-03-01T04:23:57.691Z,15.60
2023-03-01T04:26:24.576Z,16.23
2023-03-01T04:28:51.626Z,15.98
2023-03-01T04:31:22.174Z,17.30
2023-03-01T04:33:57.014Z,14.97
2023-03-01T04:36:30.684Z,15.82
2023-03-01T04:39:00.498Z,16.98
2023-03-01T04:41:32.293Z,18.63
2023-03-01T04:44:01.066Z,15.55
2023-03-01T04:46:28.118Z,16.40
2023-03-01T04:48:59.854Z,15.57
2023-03-01T04:51:26.754Z,16.90
2023-03-01T04:53:53.580Z,16.85
2023-03-01T04:56:20.531Z,16.92
2023-03-01T04:58:47.987Z,17.13
2023-03-01T05:01:20.763Z,15.52
2023-03-01T05:03:55.588Z,18.27
2023-03-01T05:06:22.697Z,16.55
2023-03-01T05:08:49.647Z,17.73
2023-03-01T05:11:16.543Z,14.18
2023-03-01T05:13:43.709Z,15.25
2023-03-01T05:16:12.696Z,16.27
2023-03-01T05:18:40.948Z,18.05
2023-03-01T05:21:12.158Z,16.90
2023-03-01T05:23:39.778Z,14.48
2023-03-01T05:26:13.497Z,14.57
2023-03-01T05:28:43.249Z,21.00
2023-03-01T05:31:12.789Z,15.60
2023-03-01T05:33:44.959Z,14.98
2023-03-01T05:36:11.905Z,15.77
2023-03-01T05:38:38.865Z,16.83
2023-03-01T05:41:08.247Z,16.45
2023-03-01T05:43:35.168Z,14.80
2023-03-01T05:46:04.585Z,16.52
2023-03-01T05:48:33.672Z,15.27
2023-03-01T05:51:01.717Z,15.95
2023-03-01T05:53:28.745Z,13.73
2023-03-01T05:55:56.014Z,16.48
2023-03-01T05:58:22.877Z,16.13
2023-03-01T06:00:50.219Z,14.68
2023-03-01T06:03:18.842Z,19.42
2023-03-01T06:05:46.214Z,16.17
2023-03-01T06:08:16.198Z,15.30
2023-03-01T06:10:45.144Z,16.80
2023-03-01T06:13:12.018Z,15.27
2023-03-01T06:15:38.940Z,14.50
2023-03-01T06:18:05.843Z,15.77
2023-03-01T06:20:32.760Z,16.00
2023-03-01T06:23:00.990Z,16.30
2023-03-01T06:25:28.803Z,16.80
2023-03-01T06:27:57.800Z,17.27
2023-03-01T06:30:26.448Z,16.15
2023-03-01T06:32:53.998Z,14.93
2023-03-01T06:35:23.357Z,16.65
2023-03-01T06:37:50.271Z,13.05
2023-03-01T06:40:22.556Z,14.20
2023-03-01T06:42:51.514Z,13.90
2023-03-01T06:45:20.602Z,15.48
2023-03-01T06:47:48.213Z,16.38
2023-03-01T06:50:17.665Z,15.32
2023-03-01T06:55:14.912Z,16.48
2023-03-01T06:57:48.924Z,15.55
2023-03-01T07:00:16.595Z,14.10
2023-03-01T07:02:43.525Z,16.88
2023-03-01T07:05:12.462Z,16.00
2023-03-01T07:07:39.339Z,14.40
2023-03-01T07:10:09.994Z,14.48
2023-03-01T07:12:39.174Z,15.13
2023-03-01T07:15:10.857Z,14.23
2023-03-01T07:17:39.927Z,14.57
2023-03-01T07:20:12.701Z,13.52
2023-03-01T07:22:43.023Z,13.50
2023-03-01T07:25:11.327Z,15.70
2023-03-01T07:27:38.450Z,15.85
2023-03-01T07:30:06.325Z,12.77
2023-03-01T07:32:35.744Z,13.57
2023-03-01T07:35:05.446Z,13.55
2023-03-01T07:37:34.796Z,13.52
2023-03-01T07:40:01.638Z,15.10
2023-03-01T07:42:28.493Z,14.80
2023-03-01T07:44:55.346Z,14.07
2023-03-01T07:47:22.162Z,16.92
2023-03-01T07:49:48.996Z,15.50
2023-03-01T07:52:20.425Z,15.18
2023-03-01T07:54:47.232Z,13.57
2023-03-01T07:57:14.187Z,14.65
2023-03-01T07:59:43.178Z,15.75
2023-03-01T08:02:12.020Z,14.32
2023-03-01T08:04:39.008Z,14.82
2023-03-01T08:07:06.831Z,16.63
2023-03-01T08:09:38.660Z,14.68
2023-03-01T08:12:08.365Z,16.23
2023-03-01T08:14:35.397Z,13.48
2023-03-01T08:17:03.974Z,16.13
2023-03-01T08:19:31.238Z,15.32
2023-03-01T08:21:59.197Z,16.05
2023-03-01T08:24:26.381Z,15.80
2023-03-01T08:26:53.497Z,16.45
2023-03-01T08:29:23.124Z,14.93
2023-03-01T08:31:52.864Z,14.57
2023-03-01T08:34:20.128Z,14.65
2023-03-01T08:36:47.627Z,12.38
2023-03-01T08:39:21.042Z,15.63
2023-03-01T08:41:48.596Z,14.07
2023-03-01T08:44:20.559Z,14.65
2023-03-01T08:46:51.115Z,14.55
2023-03-01T08:49:20.321Z,15.00
2023-03-01T08:51:52.888Z,13.43
2023-03-01T08:54:22.590Z,15.20
2023-03-01T08:56:50.040Z,15.73
2023-03-01T08:59:18.381Z,15.25
2023-03-01T09:01:47.495Z,17.02
2023-03-01T09:04:18.307Z,15.50
2023-03-01T09:06:45.250Z,13.55
2023-03-01T09:09:18.574Z,13.48
2023-03-01T09:11:51.063Z,14.57
2023-03-01T09:14:18.031Z,12.52
2023-03-01T09:16:45.981Z,13.13
2023-03-01T09:19:18.192Z,14.98
2023-03-01T09:21:52.976Z,17.50
2023-03-01T09:24:26.052Z,15.50
2023-03-01T09:26:59.851Z,14.90
2023-03-01T09:29:29.358Z,13.38
2023-03-01T09:31:59.345Z,15.25
2023-03-01T09:34:26.440Z,13.57
2023-03-01T09:36:53.512Z,13.90
2023-03-01T09:39:23.075Z,18.17
2023-03-01T09:42:02.944Z,13.82
2023-03-01T09:44:53.004Z,15.68
2023-03-01T09:47:30.547Z,14.85
2023-03-01T09:50:17.892Z,14.00
2023-03-01T09:52:54.482Z,12.80
2023-03-01T09:55:36.226Z,15.07
2023-03-01T10:00:50.957Z,10.85
2023-03-01T10:03:29.240Z,14.05
2023-03-01T10:06:34.333Z,14.40
2023-03-01T10:09:17.288Z,13.60
2023-03-01T10:11:52.483Z,14.68
2023-03-01T10:15:11.622Z,16.02
2023-03-01T10:17:59.182Z,11.55
2023-03-01T10:20:48.552Z,13.73
2023-03-01T10:23:15.422Z,17.58
2023-03-01T10:26:35.207Z,18.17
2023-03-01T10:29:11.740Z,15.93
2023-03-01T10:31:46.392Z,16.83
2023-03-01T10:34:21.860Z,15.70
2023-03-01T10:37:26.988Z,15.73
2023-03-01T10:40:09.707Z,14.68
2023-03-01T10:42:48.076Z,13.38
2023-03-01T10:45:30.073Z,13.73
2023-03-01T10:48:19.139Z,15.13
2023-03-01T10:51:06.337Z,13.60
2023-03-01T10:53:52.027Z,15.23
2023-03-01T10:56:18.945Z,16.85
2023-03-01T10:59:05.543Z,15.02
2023-03-01T11:01:36.365Z,13.43
2023-03-01T11:04:08.463Z,14.23
2023-03-01T11:06:38.038Z,15.13
2023-03-01T11:09:20.460Z,13.57
2023-03-01T11:11:50.157Z,14.77
2023-03-01T11:14:27.271Z,14.27
2023-03-01T11:17:26.793Z,15.55
2023-03-01T11:20:15.601Z,13.85
2023-03-01T11:22:56.756Z,15.68
2023-03-01T11:25:29.074Z,14.13
2023-03-01T11:27:59.546Z,14.23
2023-03-01T11:30:40.078Z,16.58
2023-03-01T11:33:34.371Z,14.82
2023-03-01T11:36:33.663Z,12.82
2023-03-01T11:39:34.316Z,12.00
2023-03-01T11:42:22.503Z,12.57
2023-03-01T11:44:56.698Z,16.13
2023-03-01T11:47:23.698Z,14.05
2023-03-01T11:50:18.237Z,14.80
2023-03-01T11:53:39.287Z,15.77
2023-03-01T11:56:08.725Z,15.80
2023-03-01T11:58:56.351Z,16.20
2023-03-01T12:02:11.095Z,18.85
2023-03-01T12:05:15.864Z,14.40
2023-03-01T12:08:07.332Z,13.48
2023-03-01T12:11:02.907Z,15.50
2023-03-01T12:13:56.922Z,16.40
2023-03-01T12:16:57.190Z,15.25
2023-03-01T12:20:01.345Z,17.55
2023-03-01T12:22:44.669Z,18.27
2023-03-01T12:25:55.676Z,18.42
2023-03-01T12:29:02.725Z,19.60
2023-03-01T12:31:45.439Z,15.10
2023-03-01T12:34:50.652Z,18.48
2023-03-01T12:37:32.751Z,19.20
2023-03-01T12:40:24.447Z,18.95
2023-03-01T12:43:06.270Z,16.58
2023-03-01T12:48:49.284Z,16.33
2023-03-01T12:51:23.741Z,15.27
2023-03-01T12:53:57.040Z,16.88
2023-03-01T12:56:30.808Z,17.02
2023-03-01T12:59:21.353Z,20.90
2023-03-01T13:02:03.407Z,20.88
2023-03-01T13:04:37.974Z,16.60
2023-03-01T13:07:31.221Z,16.15
2023-03-01T13:10:15.466Z,15.82
2023-03-01T13:12:57.378Z,18.45
2023-03-01T13:15:24.271Z,20.58
2023-03-01T13:17:56.887Z,18.27
2023-03-01T13:20:33.173Z,18.30
2023-03-01T13:23:23.037Z,15.77
2023-03-01T13:26:17.712Z,16.38
2023-03-01T13:28:53.905Z,19.20
2023-03-01T13:31:20.757Z,14.88
2023-03-01T13:33:57.624Z,18.20
2023-03-01T13:36:31.668Z,16.60
2023-03-01T13:39:08.665Z,17.45
2023-03-01T13:41:46.742Z,16.13
2023-03-01T13:44:39.818Z,15.93
2023-03-01T13:47:14.845Z,16.73
2023-03-01T13:50:00.630Z,24.05
2023-03-01T13:52:42.592Z,16.08
2023-03-01T13:55:20.157Z,15.50
2023-03-01T13:57:58.392Z,15.77
2023-03-01T14:00:45.902Z,17.00
2023-03-01T14:03:22.651Z,16.35
2023-03-01T14:06:15.303Z,17.30
2023-03-01T14:08:46.018Z,15.32
2023-03-01T14:11:50.341Z,17.30
2023-03-01T14:14:41.399Z,16.95
2023-03-01T14:17:28.179Z,14.48
2023-03-01T14:20:29.369Z,16.25
2023-03-01T14:23:03.910Z,15.40
2023-03-01T14:25:34.777Z,18.17
2023-03-01T14:28:18.696Z,17.92
2023-03-01T14:30:49.638Z,16.67
2023-03-01T14:33:38.134Z,16.73
2023-03-01T14:36:10.360Z,15.13
2023-03-01T14:38:40.496Z,16.58
2023-03-01T14:41:20.456Z,18.80
2023-03-01T14:43:51.675Z,17.83
2023-03-01T14:46:30.596Z,18.10
2023-03-01T14:49:05.985Z,17.00
2023-03-01T14:51:41.464Z,20.10
2023-03-01T14:54:44.770Z,15.70
2023-03-01T14:57:27.607Z,16.25
2023-03-01T15:00:06.256Z,15.88
2023-03-01T15:02:36.584Z,17.10
2023-03-01T15:05:08.425Z,14.90
2023-03-01T15:07:41.073Z,18.10
2023-03-01T15:10:17.943Z,14.32
2023-03-01T15:12:44.834Z,19.10
2023-03-01T15:15:29.442Z,20.65
2023-03-01T15:18:00.392Z,18.65
2023-03-01T15:20:30.232Z,16.85
2023-03-01T15:22:58.122Z,18.38
2023-03-01T15:25:29.087Z,17.13
2023-03-01T15:28:00.500Z,17.30
2023-03-01T15:30:38.665Z,17.80
2023-03-01T15:33:32.239Z,15.15
2023-03-01T15:36:02.057Z,15.68
2023-03-01T15:38:35.083Z,18.20
2023-03-01T15:41:27.589Z,16.88
2023-03-01T15:43:56.658Z,18.63
2023-03-01T15:46:39.966Z,18.40
2023-03-01T15:49:54.492Z,20.20
2023-03-01T15:52:40.364Z,17.08
2023-03-01T15:55:17.634Z,17.80
2023-03-01T15:57:47.675Z,17.20
2023-03-01T16:00:20.986Z,17.63
2023-03-01T16:02:50.141Z,18.50
2023-03-01T16:05:29.196Z,18.40
2023-03-01T16:07:58.466Z,19.63
2023-03-01T16:10:25.929Z,17.38
2023-03-01T16:12:53.432Z,18.88
2023-03-01T16:15:27.315Z,18.95
2023-03-01T16:17:54.706Z,18.90
2023-03-01T16:20:30.013Z,16.95
2023-03-01T16:23:08.389Z,18.40
2023-03-01T16:25:40.532Z,20.67
2023-03-01T16:28:11.140Z,18.23
2023-03-01T16:30:42.080Z,18.33
2023-03-01T16:33:24.383Z,18.52
2023-03-01T16:35:56.532Z,18.23
2023-03-01T16:38:23.501Z,16.88
2023-03-01T16:40:52.833Z,18.27
2023-03-01T16:43:20.213Z,19.95
2023-03-01T16:45:47.549Z,18.42
2023-03-01T16:48:15.079Z,18.30
2023-03-01T16:50:42.364Z,19.10
2023-03-01T16:53:09.772Z,25.63
2023-03-01T16:55:36.856Z,25.23
2023-03-01T16:58:08.767Z,24.67
2023-03-01T17:00:37.136Z,21.98
2023-03-01T17:03:04.286Z,22.38
2023-03-01T17:05:33.763Z,20.15
2023-03-01T17:08:02.799Z,21.77
2023-03-01T17:10:34.280Z,23.20
2023-03-01T17:13:03.535Z,23.65
2023-03-01T17:15:30.581Z,26.63
2023-03-01T17:17:57.583Z,25.75
2023-03-01T17:20:24.664Z,25.75
2023-03-01T17:22:53.690Z,25.90
2023-03-01T17:25:20.729Z,26.25
2023-03-01T17:27:50.689Z,28.42
2023-03-01T17:30:18.442Z,23.90
2023-03-01T17:32:47.756Z,27.00
2023-03-01T17:35:14.846Z,22.63
2023-03-01T17:37:46.416Z,24.15
2023-03-01T17:40:14.000Z,23.35
2023-03-01T17:42:40.993Z,25.10
2023-03-01T17:45:11.478Z,23.45
2023-03-01T17:47:38.410Z,22.35
2023-03-01T17:50:06.534Z,24.60
2023-03-01T17:52:35.760Z,21.38
2023-03-01T17:55:02.786Z,20.70
2023-03-01T17:57:29.718Z,21.35
2023-03-01T17:59:56.655Z,22.77
2023-03-01T18:02:26.618Z,20.52
2023-03-01T18:04:58.424Z,21.40
2023-03-01T18:07:28.795Z,19.67
2023-03-01T18:09:56.566Z,22.83
2023-03-01T18:12:23.651Z,21.17
2023-03-01T18:14:55.972Z,22.58
2023-03-01T18:17:26.794Z,20.98
2023-03-01T18:19:56.233Z,21.27
2023-03-01T18:22:25.755Z,22.95
2023-03-01T18:24:52.715Z,23.40
2023-03-01T18:27:19.752Z,23.85
2023-03-01T18:29:48.981Z,23.15
2023-03-01T18:32:18.445Z,24.30
2023-03-01T18:34:45.620Z,25.67
2023-03-01T18:37:14.861Z,25.58
2023-03-01T18:39:42.006Z,22.63
2023-03-01T18:42:09.152Z,21.13
2023-03-01T18:44:39.104Z,25.05
2023-03-01T18:47:06.069Z,25.42
2023-03-01T18:49:33.088Z,29.60
2023-03-01T18:51:59.980Z,30.27
2023-03-01T18:54:26.875Z,26.52
2023-03-01T18:56:56.848Z,25.75
2023-03-01T18:59:26.760Z,23.85
2023-03-01T19:01:56.787Z,22.50
2023-03-01T19:04:27.223Z,24.45
2023-03-01T19:06:57.864Z,26.02
2023-03-01T19:09:28.213Z,27.37
2023-03-01T19:12:00.877Z,30.92
2023-03-01T19:14:33.324Z,26.52
2023-03-01T19:17:02.684Z,23.25
2023-03-01T19:19:36.263Z,22.30
2023-03-01T19:22:06.060Z,22.30
2023-03-01T19:24:37.568Z,24.25
2023-03-01T19:27:06.686Z,25.73
2023-03-01T19:29:35.647Z,24.38
2023-03-01T19:32:03.850Z,23.60
2023-03-01T19:34:31.344Z,25.00
2023-03-01T19:37:00.297Z,26.85
2023-03-01T19:39:27.629Z,27.25
2023-03-01T19:41:55.150Z,28.08
2023-03-01T19:44:27.147Z,30.02
2023-03-01T19:46:58.080Z,30.80
2023-03-01T19:49:29.057Z,33.58
2023-03-01T19:51:56.015Z,30.17
2023-03-01T19:54:25.270Z,31.60
2023-03-01T19:56:55.830Z,25.70
2023-03-01T19:59:24.976Z,30.33
2023-03-01T20:01:56.017Z,30.50
2023-03-01T20:04:25.285Z,29.98
2023-03-01T20:06:52.516Z,27.48
2023-03-01T20:09:26.261Z,38.40
2023-03-01T20:11:53.258Z,34.83
2023-03-01T20:14:23.545Z,30.45
2023-03-01T20:16:53.240Z,31.33
2023-03-01T20:19:21.130Z,27.65
2023-03-01T20:21:50.621Z,25.38
2023-03-01T20:24:17.545Z,26.73
2023-03-01T20:26:46.725Z,27.33
2023-03-01T20:29:13.723Z,29.80
2023-03-01T20:31:42.452Z,26.42
2023-03-01T20:34:12.092Z,26.70
2023-03-01T20:36:42.767Z,31.92
2023-03-01T20:39:11.878Z,27.87
2023-03-01T20:41:39.519Z,31.90
2023-03-01T20:44:09.541Z,34.00
2023-03-01T20:46:37.886Z,30.25
2023-03-01T20:49:06.066Z,29.63
2023-03-01T20:51:35.340Z,35.33
2023-03-01T20:54:02.456Z,28.17
2023-03-01T20:56:29.460Z,29.92
2023-03-01T20:58:58.662Z,24.58
2023-03-01T21:01:27.833Z,25.00
2023-03-01T21:03:55.153Z,25.98
2023-03-01T21:06:24.519Z,23.23
2023-03-01T21:08:58.324Z,24.15
2023-03-01T21:11:27.548Z,23.70
2023-03-01T21:13:57.869Z,24.95
2023-03-01T21:16:27.608Z,24.48
2023-03-01T21:19:01.655Z,25.02
2023-03-01T21:21:28.951Z,20.77
2023-03-01T21:23:56.037Z,25.00
2023-03-01T21:26:27.749Z,23.27
2023-03-01T21:29:03.256Z,24.52
2023-03-01T21:31:38.845Z,21.98
2023-03-01T21:34:06.954Z,22.88
2023-03-01T21:36:35.690Z,25.38
2023-03-01T21:39:07.266Z,29.77
2023-03-01T21:41:37.191Z,25.15
2023-03-01T21:44:06.951Z,23.92
2023-03-01T21:46:37.235Z,25.33
2023-03-01T21:49:15.708Z,20.70
2023-03-01T21:51:46.579Z,23.80
2023-03-01T21:54:16.182Z,23.08
2023-03-01T21:56:44.907Z,23.80
2023-03-01T21:59:20.829Z,20.23
2023-03-01T22:01:50.146Z,21.15
2023-03-01T22:04:21.865Z,21.00
2023-03-01T22:06:54.370Z,19.48
2023-03-01T22:09:27.532Z,17.90
2023-03-01T22:12:02.054Z,20.48
2023-03-01T22:14:31.131Z,18.33
2023-03-01T22:17:01.209Z,18.20
2023-03-01T22:19:33.358Z,18.20
2023-03-01T22:22:00.267Z,16.98
2023-03-01T22:24:30.205Z,16.65
2023-03-01T22:26:57.174Z,19.25
2023-03-01T22:29:30.640Z,18.35
2023-03-01T22:31:58.251Z,17.65
2023-03-01T22:34:28.060Z,18.92
2023-03-01T22:36:54.904Z,19.75
2023-03-01T22:39:26.686Z,17.73
2023-03-01T22:41:57.348Z,18.13
2023-03-01T22:44:25.159Z,19.47
2023-03-01T22:46:52.976Z,21.10
2023-03-01T22:49:24.458Z,19.23
2023-03-01T22:51:54.206Z,21.60
2023-03-01T22:54:26.005Z,18.73
2023-03-01T22:56:53.097Z,19.48
2023-03-01T22:59:23.981Z,17.60
2023-03-01T23:01:54.394Z,22.83
2023-03-01T23:04:23.125Z,18.42
2023-03-01T23:06:51.545Z,16.77
2023-03-01T23:09:26.463Z,19.20
2023-03-01T23:11:54.880Z,19.85
2023-03-01T23:14:25.122Z,17.95
2023-03-01T23:16:52.390Z,19.40
2023-03-01T23:19:19.381Z,21.27
2023-03-01T23:21:50.504Z,19.95
2023-03-01T23:24:20.251Z,19.58
2023-03-01T23:26:55.866Z,17.58
2023-03-01T23:29:27.808Z,17.33
2023-03-01T23:31:59.277Z,19.77
2023-03-01T23:34:27.092Z,16.98
2023-03-01T23:36:55.245Z,17.58
2023-03-01T23:39:22.386Z,21.40
2023-03-01T23:41:49.343Z,19.70
2023-03-01T23:44:23.843Z,22.27
2023-03-01T23:46:51.301Z,18.08
2023-03-01T23:49:22.319Z,20.38
2023-03-01T23:51:49.603Z,24.63
2023-03-01T23:54:20.776Z,21.33
2023-03-01T23:56:49.968Z,18.98
2023-03-01T23:59:23.036Z,19.73
